createdAt,value
2022-10-06T00:01:35.260Z,3.22
2022-10-06T00:04:58.174Z,3.08
2022-10-06T00:08:20.347Z,3.35
2022-10-06T00:11:42.117Z,3.10
2022-10-06T00:15:03.233Z,2.80
2022-10-06T00:18:25.105Z,3.03
2022-10-06T00:21:48.202Z,3.05
2022-10-06T00:25:11.279Z,3.10
2022-10-06T00:28:33.352Z,3.35
2022-10-06T00:31:55.495Z,2.97
2022-10-06T00:35:17.513Z,3.45
2022-10-06T00:38:40.495Z,3.15
2022-10-06T00:42:05.617Z,3.10
2022-10-06T00:45:32.662Z,3.10
2022-10-06T00:48:59.744Z,3.30
2022-10-06T00:52:26.454Z,3.00
2022-10-06T00:55:49.812Z,3.25
2022-10-06T00:59:13.760Z,2.90
2022-10-06T01:02:40.277Z,3.20
2022-10-06T01:06:03.635Z,3.47
2022-10-06T01:09:25.877Z,3.35
2022-10-06T01:12:49.156Z,3.47
2022-10-06T01:16:17.805Z,3.10
2022-10-06T01:19:49.182Z,3.63
2022-10-06T01:23:13.182Z,2.95
2022-10-06T01:26:39.257Z,3.17
2022-10-06T01:30:01.690Z,3.53
2022-10-06T01:33:24.716Z,3.58
2022-10-06T01:36:47.267Z,3.10
2022-10-06T01:40:11.491Z,3.88
2022-10-06T01:43:33.264Z,3.50
2022-10-06T01:46:55.002Z,3.33
2022-10-06T01:50:17.129Z,3.25
2022-10-06T01:53:38.587Z,3.10
2022-10-06T01:57:01.297Z,3.40
2022-10-06T02:00:23.139Z,3.00
2022-10-06T02:03:45.058Z,3.00
2022-10-06T02:07:07.029Z,3.00
2022-10-06T02:10:36.716Z,3.00
2022-10-06T02:14:02.587Z,3.00
2022-10-06T02:17:25.536Z,2.90
2022-10-06T02:20:47.739Z,3.00
2022-10-06T02:24:09.344Z,3.55
2022-10-06T02:27:31.658Z,3.08
2022-10-06T02:30:55.545Z,3.25
2022-10-06T02:34:17.398Z,3.28
2022-10-06T02:37:40.025Z,3.22
2022-10-06T02:41:02.645Z,3.00
2022-10-06T02:44:25.288Z,3.45
2022-10-06T02:47:50.573Z,2.65
2022-10-06T02:51:13.689Z,2.90
2022-10-06T02:54:37.471Z,3.10
2022-10-06T02:57:58.717Z,3.55
2022-10-06T03:01:24.000Z,3.58
2022-10-06T03:04:48.316Z,3.53
2022-10-06T03:08:11.550Z,3.10
2022-10-06T03:11:35.438Z,3.33
2022-10-06T03:14:57.969Z,3.35
2022-10-06T03:18:19.757Z,3.03
2022-10-06T03:21:44.575Z,3.15
2022-10-06T03:25:08.977Z,2.85
2022-10-06T03:28:31.574Z,3.88
2022-10-06T03:31:53.687Z,4.38
2022-10-06T03:35:15.584Z,3.22
2022-10-06T03:38:39.403Z,3.47
2022-10-06T03:42:01.223Z,3.72
2022-10-06T03:45:22.899Z,3.45
2022-10-06T03:48:45.448Z,3.33
2022-10-06T03:52:07.169Z,3.35
2022-10-06T03:55:33.173Z,3.28
2022-10-06T03:58:56.571Z,3.13
2022-10-06T04:02:18.386Z,3.40
2022-10-06T04:05:41.026Z,3.75
2022-10-06T04:09:03.544Z,3.13
2022-10-06T04:12:27.002Z,3.67
2022-10-06T04:15:49.849Z,3.38
2022-10-06T04:19:13.757Z,3.20
2022-10-06T04:22:38.863Z,3.50
2022-10-06T04:26:02.741Z,3.80
2022-10-06T04:29:25.961Z,3.47
2022-10-06T04:32:51.047Z,3.58
2022-10-06T04:36:15.670Z,3.40
2022-10-06T04:39:37.876Z,3.53
2022-10-06T04:43:00.388Z,3.50
2022-10-06T04:46:42.034Z,3.20
2022-10-06T04:50:05.205Z,3.25
2022-10-06T04:53:27.456Z,3.50
2022-10-06T04:56:51.718Z,2.72
2022-10-06T05:00:26.769Z,2.50
2022-10-06T05:03:52.361Z,2.65
2022-10-06T05:07:13.852Z,1.95
2022-10-06T05:10:35.839Z,2.55
2022-10-06T05:13:59.517Z,2.40
2022-10-06T05:17:23.314Z,2.33
2022-10-06T05:20:56.351Z,2.63
2022-10-06T05:24:17.978Z,2.28
2022-10-06T05:27:39.731Z,2.67
2022-10-06T05:31:05.317Z,2.30
2022-10-06T05:34:28.267Z,2.17
2022-10-06T05:37:52.009Z,1.95
2022-10-06T05:41:15.773Z,1.40
2022-10-06T05:44:37.951Z,1.50
2022-10-06T05:48:04.450Z,1.33
2022-10-06T05:51:31.027Z,1.40
2022-10-06T05:54:55.109Z,1.50
2022-10-06T05:58:18.564Z,1.50
2022-10-06T06:01:42.237Z,1.45
2022-10-06T06:05:30.078Z,1.25
2022-10-06T06:08:54.901Z,0.93
2022-10-06T06:12:18.187Z,1.23
2022-10-06T06:16:05.981Z,1.52
2022-10-06T06:19:29.271Z,1.10
2022-10-06T06:22:53.382Z,0.98
2022-10-06T06:26:19.485Z,1.00
2022-10-06T06:29:45.685Z,1.00
2022-10-06T06:33:07.431Z,0.98
2022-10-06T06:36:32.610Z,0.80
2022-10-06T06:39:54.063Z,1.75
2022-10-06T06:43:16.479Z,0.85
2022-10-06T06:47:09.656Z,0.80
2022-10-06T06:50:31.574Z,0.60
2022-10-06T06:53:54.400Z,1.02
2022-10-06T06:57:16.543Z,0.88
2022-10-06T07:00:38.669Z,0.80
2022-10-06T07:04:02.375Z,0.70
2022-10-06T07:07:27.858Z,0.90
2022-10-06T07:10:49.821Z,0.82
2022-10-06T07:14:12.928Z,0.65
2022-10-06T07:17:55.175Z,0.65
2022-10-06T07:21:36.967Z,0.80
2022-10-06T07:25:20.458Z,0.80
2022-10-06T07:28:49.487Z,0.95
2022-10-06T07:32:12.113Z,1.35
2022-10-06T07:35:33.892Z,1.00
2022-10-06T07:38:57.541Z,1.20
2022-10-06T07:42:19.362Z,0.93
2022-10-06T07:45:42.150Z,1.52
2022-10-06T07:49:10.039Z,1.15
2022-10-06T07:52:32.475Z,0.90
2022-10-06T07:55:55.567Z,0.85
2022-10-06T07:59:22.185Z,0.95
2022-10-06T08:02:44.386Z,0.95
2022-10-06T08:06:06.333Z,1.20
2022-10-06T08:09:27.790Z,1.10
2022-10-06T08:12:51.022Z,0.93
2022-10-06T08:16:14.858Z,1.00
2022-10-06T08:19:36.332Z,1.20
2022-10-06T08:22:58.273Z,1.05
2022-10-06T08:26:21.734Z,1.00
2022-10-06T08:29:44.554Z,1.20
2022-10-06T08:33:06.907Z,0.90
2022-10-06T08:36:32.085Z,0.88
2022-10-06T08:39:55.157Z,1.15
2022-10-06T08:43:20.614Z,1.00
2022-10-06T08:46:50.165Z,1.40
2022-10-06T08:50:13.250Z,1.83
2022-10-06T08:53:46.709Z,1.05
2022-10-06T08:57:17.704Z,1.15
2022-10-06T09:00:39.457Z,1.40
2022-10-06T09:04:07.205Z,1.42
2022-10-06T09:07:35.836Z,1.30
2022-10-06T09:11:10.383Z,0.98
2022-10-06T09:14:37.595Z,1.10
2022-10-06T09:18:03.052Z,1.15
2022-10-06T09:21:31.553Z,1.10
2022-10-06T09:24:57.521Z,1.02
2022-10-06T09:28:19.440Z,1.20
2022-10-06T09:31:43.302Z,1.42
2022-10-06T09:35:18.547Z,1.30
2022-10-06T09:38:54.294Z,1.30
2022-10-06T09:42:20.336Z,1.00
2022-10-06T09:45:42.647Z,1.05
2022-10-06T09:49:16.505Z,1.00
2022-10-06T09:52:38.137Z,1.08
2022-10-06T09:56:05.069Z,1.17
2022-10-06T09:59:39.168Z,1.33
2022-10-06T10:03:04.114Z,1.38
2022-10-06T10:06:28.668Z,1.90
2022-10-06T10:09:50.161Z,1.27
2022-10-06T10:13:22.116Z,1.25
2022-10-06T10:16:44.266Z,1.35
2022-10-06T10:20:20.783Z,1.40
2022-10-06T10:23:55.294Z,1.77
2022-10-06T10:27:21.678Z,1.20
2022-10-06T10:30:54.961Z,1.33
2022-10-06T10:34:30.430Z,1.38
2022-10-06T10:37:58.795Z,0.93
2022-10-06T10:41:25.503Z,1.40
2022-10-06T10:44:52.718Z,1.92
2022-10-06T10:48:20.424Z,1.92
2022-10-06T10:51:49.893Z,1.20
2022-10-06T10:55:23.262Z,1.38
2022-10-06T10:58:46.876Z,1.60
2022-10-06T11:02:16.741Z,1.60
2022-10-06T11:05:57.218Z,1.10
2022-10-06T11:09:21.410Z,1.30
2022-10-06T11:13:10.610Z,1.52
2022-10-06T11:16:41.260Z,1.33
2022-10-06T11:20:10.620Z,1.30
2022-10-06T11:23:47.057Z,1.00
2022-10-06T11:27:24.004Z,1.85
2022-10-06T11:30:58.079Z,1.30
2022-10-06T11:34:19.748Z,1.45
2022-10-06T11:37:47.830Z,1.60
2022-10-06T11:41:19.559Z,1.23
2022-10-06T11:44:46.457Z,1.60
2022-10-06T11:48:29.158Z,1.35
2022-10-06T11:51:50.733Z,1.45
2022-10-06T11:55:18.610Z,1.10
2022-10-06T11:59:10.275Z,1.30
2022-10-06T12:02:38.613Z,1.40
2022-10-06T12:06:02.655Z,1.30
2022-10-06T12:09:44.811Z,1.20
2022-10-06T12:13:51.313Z,1.38
2022-10-06T12:17:18.345Z,1.13
2022-10-06T12:20:53.341Z,1.30
2022-10-06T12:24:26.685Z,1.52
2022-10-06T12:28:04.210Z,1.23
2022-10-06T12:31:41.329Z,1.30
2022-10-06T12:35:23.840Z,2.08
2022-10-06T12:39:01.374Z,1.30
2022-10-06T12:42:31.215Z,1.30
2022-10-06T12:45:58.919Z,1.20
2022-10-06T12:49:42.744Z,1.30
2022-10-06T12:53:12.910Z,1.35
2022-10-06T12:56:36.504Z,1.30
2022-10-06T12:59:58.138Z,1.40
2022-10-06T13:03:26.397Z,1.70
2022-10-06T13:06:50.572Z,1.20
2022-10-06T13:10:20.215Z,1.00
2022-10-06T13:13:48.588Z,1.63
2022-10-06T13:17:10.733Z,1.20
2022-10-06T13:20:39.611Z,1.20
2022-10-06T13:24:01.009Z,1.30
2022-10-06T13:27:24.199Z,1.08
2022-10-06T13:30:51.519Z,1.58
2022-10-06T13:34:15.094Z,1.20
2022-10-06T13:37:37.166Z,1.05
2022-10-06T13:41:07.606Z,1.38
2022-10-06T13:44:36.833Z,1.67
2022-10-06T13:48:07.159Z,1.02
2022-10-06T13:51:31.210Z,1.75
2022-10-06T13:54:55.345Z,1.35
2022-10-06T13:58:19.653Z,1.25
2022-10-06T14:01:43.379Z,1.13
2022-10-06T14:05:27.490Z,1.27
2022-10-06T14:08:52.439Z,1.55
2022-10-06T14:12:16.363Z,1.48
2022-10-06T14:15:46.297Z,1.15
2022-10-06T14:19:32.825Z,1.30
2022-10-06T14:22:54.265Z,1.30
2022-10-06T14:26:17.883Z,1.48
2022-10-06T14:29:41.282Z,1.55
2022-10-06T14:33:02.942Z,1.27
2022-10-06T14:36:28.245Z,1.15
2022-10-06T14:39:51.595Z,1.52
2022-10-06T14:43:13.277Z,1.10
2022-10-06T14:46:34.934Z,1.20
2022-10-06T14:49:56.309Z,1.60
2022-10-06T14:53:18.985Z,1.13
2022-10-06T14:56:42.240Z,1.38
2022-10-06T15:00:05.474Z,1.70
2022-10-06T15:03:27.150Z,1.27
2022-10-06T15:07:06.373Z,1.25
2022-10-06T15:10:30.210Z,1.40
2022-10-06T15:13:53.877Z,1.40
2022-10-06T15:17:15.615Z,1.52
2022-10-06T15:20:38.140Z,1.20
2022-10-06T15:24:01.637Z,0.90
2022-10-06T15:27:42.266Z,1.38
2022-10-06T15:31:03.994Z,1.50
2022-10-06T15:34:27.603Z,1.30
2022-10-06T15:37:49.193Z,1.20
2022-10-06T15:41:11.221Z,1.30
2022-10-06T15:44:34.920Z,1.63
2022-10-06T15:47:56.487Z,1.38
2022-10-06T15:51:18.660Z,1.35
2022-10-06T15:54:41.762Z,1.50
2022-10-06T15:58:03.181Z,1.92
2022-10-06T16:01:36.272Z,1.90
2022-10-06T16:05:18.752Z,2.03
2022-10-06T16:08:40.435Z,1.70
2022-10-06T16:12:03.528Z,1.60
2022-10-06T16:15:25.353Z,1.70
2022-10-06T16:18:48.751Z,2.58
2022-10-06T16:22:13.050Z,2.60
2022-10-06T16:25:34.650Z,5.50
2022-10-06T16:28:56.673Z,3.10
2022-10-06T16:32:18.118Z,4.10
2022-10-06T16:35:40.968Z,1.40
2022-10-06T16:39:02.955Z,1.85
2022-10-06T16:42:25.186Z,1.70
2022-10-06T16:45:59.753Z,2.25
2022-10-06T16:49:24.438Z,2.03
2022-10-06T16:52:47.557Z,1.70
2022-10-06T16:56:13.419Z,2.00
2022-10-06T16:59:35.010Z,2.30
2022-10-06T17:02:56.916Z,1.88
2022-10-06T17:06:19.230Z,2.45
2022-10-06T17:09:56.057Z,3.38
2022-10-06T17:13:23.936Z,3.53
2022-10-06T17:16:47.889Z,3.88
2022-10-06T17:20:10.467Z,4.35
2022-10-06T17:23:32.424Z,4.38
2022-10-06T17:26:55.558Z,4.70
2022-10-06T17:30:17.091Z,5.53
2022-10-06T17:33:40.868Z,6.22
2022-10-06T17:37:03.163Z,7.15
2022-10-06T17:40:26.077Z,6.45
2022-10-06T17:43:50.762Z,5.97
2022-10-06T17:47:12.717Z,6.78
2022-10-06T17:50:34.669Z,5.70
2022-10-06T17:53:58.303Z,5.32
2022-10-06T17:57:20.438Z,4.57
2022-10-06T18:00:43.498Z,8.23
2022-10-06T18:04:06.773Z,4.25
2022-10-06T18:07:28.520Z,5.20
2022-10-06T18:11:08.239Z,5.07
2022-10-06T18:14:33.631Z,6.30
2022-10-06T18:17:56.329Z,7.38
2022-10-06T18:21:18.376Z,9.10
2022-10-06T18:24:41.344Z,10.00
2022-10-06T18:28:03.014Z,8.13
2022-10-06T18:31:24.726Z,6.63
2022-10-06T18:38:31.477Z,7.32
2022-10-06T18:41:53.646Z,5.13
2022-10-06T18:45:36.762Z,3.72
2022-10-06T18:49:05.324Z,3.33
2022-10-06T18:52:28.388Z,3.33
2022-10-06T18:55:49.540Z,3.10
2022-10-06T18:59:13.869Z,2.70
2022-10-06T19:02:35.258Z,2.95
2022-10-06T19:05:57.122Z,3.50
2022-10-06T19:09:22.697Z,4.45
2022-10-06T19:12:44.177Z,3.63
2022-10-06T19:16:05.614Z,5.47
2022-10-06T19:19:28.687Z,15.95
2022-10-06T19:22:50.115Z,7.22
2022-10-06T19:26:13.755Z,7.30
2022-10-06T19:29:37.507Z,3.60
2022-10-06T19:32:59.270Z,2.92
2022-10-06T19:36:20.947Z,3.00
2022-10-06T19:39:45.291Z,2.45
2022-10-06T19:43:08.074Z,2.55
2022-10-06T19:46:29.537Z,2.40
2022-10-06T19:49:51.422Z,2.85
2022-10-06T19:53:12.814Z,2.50
2022-10-06T19:56:34.698Z,1.95
2022-10-06T19:59:57.472Z,2.55
2022-10-06T20:03:20.191Z,2.35
2022-10-06T20:06:42.299Z,2.50
2022-10-06T20:10:04.153Z,2.55
2022-10-06T20:13:25.796Z,2.45
2022-10-06T20:16:50.936Z,2.38
2022-10-06T20:20:13.755Z,2.40
2022-10-06T20:23:35.394Z,2.65
2022-10-06T20:26:56.911Z,3.78
2022-10-06T20:30:18.745Z,3.25
2022-10-06T20:33:43.437Z,3.00
2022-10-06T20:37:06.377Z,3.03
2022-10-06T20:40:49.103Z,2.58
2022-10-06T20:44:10.691Z,2.72
2022-10-06T20:47:32.061Z,2.60
2022-10-06T20:50:54.851Z,3.25
2022-10-06T20:54:17.341Z,3.78
2022-10-06T20:57:38.992Z,4.80
2022-10-06T21:01:06.043Z,4.20
2022-10-06T21:04:27.697Z,11.95
2022-10-06T21:07:50.607Z,13.93
2022-10-06T21:11:13.212Z,12.33
2022-10-06T21:14:36.174Z,8.90
2022-10-06T21:17:57.667Z,8.00
2022-10-06T21:21:19.326Z,8.88
2022-10-06T21:24:42.261Z,7.97
2022-10-06T21:28:04.676Z,9.53
2022-10-06T21:31:28.385Z,9.57
2022-10-06T21:34:50.318Z,8.30
2022-10-06T21:38:12.663Z,8.10
2022-10-06T21:41:38.885Z,7.50
2022-10-06T21:45:00.639Z,7.27
2022-10-06T21:48:22.147Z,6.70
2022-10-06T21:51:46.214Z,7.30
2022-10-06T21:55:08.630Z,6.30
2022-10-06T21:58:31.242Z,6.73
2022-10-06T22:01:52.723Z,6.43
2022-10-06T22:05:14.606Z,6.70
2022-10-06T22:08:38.565Z,6.10
2022-10-06T22:12:00.061Z,5.97
2022-10-06T22:15:22.815Z,6.40
2022-10-06T22:18:44.133Z,5.10
2022-10-06T22:22:05.262Z,6.10
2022-10-06T22:25:26.581Z,5.03
2022-10-06T22:28:49.652Z,5.87
2022-10-06T22:32:12.526Z,5.03
2022-10-06T22:35:33.816Z,5.33
2022-10-06T22:38:55.786Z,4.70
2022-10-06T22:42:17.368Z,5.20
2022-10-06T22:45:38.466Z,4.57
2022-10-06T22:49:01.329Z,4.90
2022-10-06T22:52:22.834Z,5.00
2022-10-06T22:55:44.314Z,4.17
2022-10-06T22:59:05.781Z,4.60
2022-10-06T23:02:27.238Z,4.90
2022-10-06T23:05:57.070Z,4.70
2022-10-06T23:09:18.412Z,4.40
2022-10-06T23:12:40.194Z,4.50
2022-10-06T23:16:07.205Z,4.53
2022-10-06T23:19:29.322Z,4.03
2022-10-06T23:22:52.008Z,4.77
2022-10-06T23:26:15.584Z,4.13
2022-10-06T23:29:37.534Z,4.43
2022-10-06T23:32:58.816Z,5.17
2022-10-06T23:36:21.426Z,4.50
2022-10-06T23:39:44.233Z,4.50
2022-10-06T23:43:05.573Z,4.47
2022-10-06T23:46:26.911Z,4.57
2022-10-06T23:49:48.497Z,4.67
2022-10-06T23:53:10.201Z,4.40
2022-10-06T23:56:32.770Z,4.53
2022-10-06T23:59:54.538Z,8.20
